Terminal Aerodrome Forecast
Issued by NWS Albany, NY

Home | Current Version | Previous Version | Text Only | Print | Product List | Glossary On
Versions: 1 2 3 4 5 6 7 8 9 10 11 12 13 14 15 16 17 18 19 20 21 22 23 24 25 26 27
887
FTUS41 KALY 242332
TAFALB
TAF
KALB 242332Z 2500/2524 33009KT 2SM -PLSN BR BKN008 OVC012
      TEMPO 2501/2503 3SM -PLSN BR SCT008 OVC012
     FM250300 32011KT 3SM -SNPL BR SCT008 OVC015
      TEMPO 2503/2506 2SM -SN BR BKN008 OVC015
     FM250600 31012G19KT P6SM VCSH BKN025 OVC050
     FM251200 30013G22KT P6SM BKN030
     FM252100 29008KT P6SM SCT050=

USA.gov is the U.S. government's official web portal to all federal, state and local government web resources and services.